sensor_id;sensor_type;location;lat;lon;timestamp;temperature;humidity
49731;DHT22;35622;52.008;5.426;2023-05-07T00:00:36;18.70;81.30
49731;DHT22;35622;52.008;5.426;2023-05-07T00:03:01;18.90;80.50
49731;DHT22;35622;52.008;5.426;2023-05-07T00:05:27;18.60;81.50
49731;DHT22;35622;52.008;5.426;2023-05-07T00:07:53;18.60;82.00
49731;DHT22;35622;52.008;5.426;2023-05-07T00:10:19;18.20;83.80
49731;DHT22;35622;52.008;5.426;2023-05-07T00:12:44;18.30;83.70
49731;DHT22;35622;52.008;5.426;2023-05-07T00:15:10;18.40;83.70
49731;DHT22;35622;52.008;5.426;2023-05-07T00:17:36;18.50;83.10
49731;DHT22;35622;52.008;5.426;2023-05-07T00:20:02;18.50;83.10
49731;DHT22;35622;52.008;5.426;2023-05-07T00:22:29;18.60;82.50
49731;DHT22;35622;52.008;5.426;2023-05-07T00:24:55;18.50;82.40
49731;DHT22;35622;52.008;5.426;2023-05-07T00:27:21;18.60;81.70
49731;DHT22;35622;52.008;5.426;2023-05-07T00:29:47;18.40;81.90
49731;DHT22;35622;52.008;5.426;2023-05-07T00:32:12;18.50;82.60
49731;DHT22;35622;52.008;5.426;2023-05-07T00:34:38;18.50;82.10
49731;DHT22;35622;52.008;5.426;2023-05-07T00:37:04;18.40;82.00
49731;DHT22;35622;52.008;5.426;2023-05-07T00:39:30;18.40;82.20
49731;DHT22;35622;52.008;5.426;2023-05-07T00:41:56;18.30;82.20
49731;DHT22;35622;52.008;5.426;2023-05-07T00:44:22;18.20;82.40
49731;DHT22;35622;52.008;5.426;2023-05-07T00:46:48;18.20;82.50
49731;DHT22;35622;52.008;5.426;2023-05-07T00:49:15;18.20;82.80
49731;DHT22;35622;52.008;5.426;2023-05-07T00:51:41;18.20;82.60
49731;DHT22;35622;52.008;5.426;2023-05-07T00:54:07;18.30;82.80
49731;DHT22;35622;52.008;5.426;2023-05-07T00:56:33;18.30;81.80
49731;DHT22;35622;52.008;5.426;2023-05-07T00:59:03;18.30;82.50
49731;DHT22;35622;52.008;5.426;2023-05-07T01:01:29;18.50;82.20
49731;DHT22;35622;52.008;5.426;2023-05-07T01:03:55;18.30;81.80
49731;DHT22;35622;52.008;5.426;2023-05-07T01:06:23;18.20;82.50
49731;DHT22;35622;52.008;5.426;2023-05-07T01:08:50;18.10;83.10
49731;DHT22;35622;52.008;5.426;2023-05-07T01:11:18;18.10;83.00
49731;DHT22;35622;52.008;5.426;2023-05-07T01:13:46;18.10;83.40
49731;DHT22;35622;52.008;5.426;2023-05-07T01:16:11;18.10;83.60
49731;DHT22;35622;52.008;5.426;2023-05-07T01:18:37;18.20;83.00
49731;DHT22;35622;52.008;5.426;2023-05-07T01:21:04;18.10;82.70
49731;DHT22;35622;52.008;5.426;2023-05-07T01:23:30;18.10;82.90
49731;DHT22;35622;52.008;5.426;2023-05-07T01:25:56;18.00;83.10
49731;DHT22;35622;52.008;5.426;2023-05-07T01:28:21;18.10;82.90
49731;DHT22;35622;52.008;5.426;2023-05-07T01:30:51;18.20;82.70
49731;DHT22;35622;52.008;5.426;2023-05-07T01:33:20;18.20;82.40
49731;DHT22;35622;52.008;5.426;2023-05-07T01:35:52;18.20;82.20
49731;DHT22;35622;52.008;5.426;2023-05-07T01:38:19;18.10;82.60
49731;DHT22;35622;52.008;5.426;2023-05-07T01:40:45;18.10;83.10
49731;DHT22;35622;52.008;5.426;2023-05-07T01:43:11;18.10;83.30
49731;DHT22;35622;52.008;5.426;2023-05-07T01:45:38;18.20;83.20
49731;DHT22;35622;52.008;5.426;2023-05-07T01:48:04;18.20;82.90
49731;DHT22;35622;52.008;5.426;2023-05-07T01:50:31;18.20;82.90
49731;DHT22;35622;52.008;5.426;2023-05-07T01:52:57;18.20;83.00
49731;DHT22;35622;52.008;5.426;2023-05-07T01:55:22;18.30;82.80
49731;DHT22;35622;52.008;5.426;2023-05-07T01:57:49;18.30;82.80
49731;DHT22;35622;52.008;5.426;2023-05-07T02:00:15;18.40;82.50
49731;DHT22;35622;52.008;5.426;2023-05-07T02:02:40;18.40;82.40
49731;DHT22;35622;52.008;5.426;2023-05-07T02:05:06;18.30;82.60
49731;DHT22;35622;52.008;5.426;2023-05-07T02:11:39;18.40;82.80
49731;DHT22;35622;52.008;5.426;2023-05-07T02:15:14;18.20;83.10
49731;DHT22;35622;52.008;5.426;2023-05-07T02:22:04;18.10;83.60
49731;DHT22;35622;52.008;5.426;2023-05-07T02:25:32;18.10;84.10
49731;DHT22;35622;52.008;5.426;2023-05-07T02:27:58;18.20;83.90
49731;DHT22;35622;52.008;5.426;2023-05-07T02:30:24;18.20;83.70
49731;DHT22;35622;52.008;5.426;2023-05-07T02:32:50;18.10;83.90
49731;DHT22;35622;52.008;5.426;2023-05-07T02:35:16;18.10;84.10
49731;DHT22;35622;52.008;5.426;2023-05-07T02:37:41;18.10;84.20
49731;DHT22;35622;52.008;5.426;2023-05-07T02:40:08;18.20;84.20
49731;DHT22;35622;52.008;5.426;2023-05-07T02:42:34;18.20;83.80
49731;DHT22;35622;52.008;5.426;2023-05-07T02:44:59;18.30;83.60
49731;DHT22;35622;52.008;5.426;2023-05-07T02:47:25;18.30;83.30
49731;DHT22;35622;52.008;5.426;2023-05-07T02:49:54;18.30;83.30
49731;DHT22;35622;52.008;5.426;2023-05-07T02:52:21;18.20;83.20
49731;DHT22;35622;52.008;5.426;2023-05-07T02:54:46;18.30;83.30
49731;DHT22;35622;52.008;5.426;2023-05-07T02:57:12;18.50;82.40
49731;DHT22;35622;52.008;5.426;2023-05-07T02:59:37;18.50;81.80
49731;DHT22;35622;52.008;5.426;2023-05-07T03:02:03;18.40;82.20
49731;DHT22;35622;52.008;5.426;2023-05-07T03:04:29;18.30;82.90
49731;DHT22;35622;52.008;5.426;2023-05-07T03:06:54;18.20;83.50
49731;DHT22;35622;52.008;5.426;2023-05-07T03:09:20;18.30;83.60
49731;DHT22;35622;52.008;5.426;2023-05-07T03:11:45;18.00;84.00
49731;DHT22;35622;52.008;5.426;2023-05-07T03:14:11;18.10;84.30
49731;DHT22;35622;52.008;5.426;2023-05-07T03:16:37;18.10;84.10
49731;DHT22;35622;52.008;5.426;2023-05-07T03:19:03;18.10;84.10
49731;DHT22;35622;52.008;5.426;2023-05-07T03:21:28;18.10;84.20
49731;DHT22;35622;52.008;5.426;2023-05-07T03:23:54;18.10;83.90
49731;DHT22;35622;52.008;5.426;2023-05-07T03:26:19;18.10;83.30
49731;DHT22;35622;52.008;5.426;2023-05-07T03:28:45;18.00;83.70
49731;DHT22;35622;52.008;5.426;2023-05-07T03:31:11;17.90;83.60
49731;DHT22;35622;52.008;5.426;2023-05-07T03:33:49;17.90;83.60
49731;DHT22;35622;52.008;5.426;2023-05-07T03:36:15;17.90;83.50
49731;DHT22;35622;52.008;5.426;2023-05-07T03:38:40;17.80;83.30
49731;DHT22;35622;52.008;5.426;2023-05-07T03:41:06;17.70;83.30
49731;DHT22;35622;52.008;5.426;2023-05-07T03:43:31;17.70;83.40
49731;DHT22;35622;52.008;5.426;2023-05-07T03:45:57;17.50;83.70
49731;DHT22;35622;52.008;5.426;2023-05-07T03:48:22;17.50;84.20
49731;DHT22;35622;52.008;5.426;2023-05-07T03:50:49;17.50;84.10
49731;DHT22;35622;52.008;5.426;2023-05-07T03:53:15;17.40;84.10
49731;DHT22;35622;52.008;5.426;2023-05-07T03:55:40;17.40;84.10
49731;DHT22;35622;52.008;5.426;2023-05-07T03:58:06;17.50;84.00
49731;DHT22;35622;52.008;5.426;2023-05-07T04:00:31;17.40;83.90
49731;DHT22;35622;52.008;5.426;2023-05-07T04:03:02;17.40;83.80
49731;DHT22;35622;52.008;5.426;2023-05-07T04:05:29;17.40;83.90
49731;DHT22;35622;52.008;5.426;2023-05-07T04:07:54;17.30;84.40
49731;DHT22;35622;52.008;5.426;2023-05-07T04:10:20;17.30;85.00
49731;DHT22;35622;52.008;5.426;2023-05-07T04:12:45;17.30;85.20
49731;DHT22;35622;52.008;5.426;2023-05-07T04:15:11;17.30;85.50
49731;DHT22;35622;52.008;5.426;2023-05-07T04:17:37;17.40;85.90
49731;DHT22;35622;52.008;5.426;2023-05-07T04:20:02;17.60;86.40
49731;DHT22;35622;52.008;5.426;2023-05-07T04:22:28;17.70;85.00
49731;DHT22;35622;52.008;5.426;2023-05-07T04:24:54;17.70;84.80
49731;DHT22;35622;52.008;5.426;2023-05-07T04:27:20;17.80;84.70
49731;DHT22;35622;52.008;5.426;2023-05-07T04:29:45;17.80;84.70
49731;DHT22;35622;52.008;5.426;2023-05-07T04:32:12;17.80;84.80
49731;DHT22;35622;52.008;5.426;2023-05-07T04:34:38;17.90;84.60
49731;DHT22;35622;52.008;5.426;2023-05-07T04:37:04;18.00;84.20
49731;DHT22;35622;52.008;5.426;2023-05-07T04:39:29;18.00;83.80
49731;DHT22;35622;52.008;5.426;2023-05-07T04:41:55;18.10;83.80
49731;DHT22;35622;52.008;5.426;2023-05-07T04:44:21;18.10;83.30
49731;DHT22;35622;52.008;5.426;2023-05-07T04:46:46;18.10;83.60
49731;DHT22;35622;52.008;5.426;2023-05-07T04:49:12;18.00;83.90
49731;DHT22;35622;52.008;5.426;2023-05-07T04:51:37;18.10;84.40
49731;DHT22;35622;52.008;5.426;2023-05-07T04:54:03;18.00;84.10
49731;DHT22;35622;52.008;5.426;2023-05-07T04:56:29;18.00;84.30
49731;DHT22;35622;52.008;5.426;2023-05-07T04:58:55;18.00;84.70
49731;DHT22;35622;52.008;5.426;2023-05-07T05:01:21;18.00;84.70
49731;DHT22;35622;52.008;5.426;2023-05-07T05:03:46;18.00;84.80
49731;DHT22;35622;52.008;5.426;2023-05-07T05:06:12;18.10;84.70
49731;DHT22;35622;52.008;5.426;2023-05-07T05:08:37;18.20;84.70
49731;DHT22;35622;52.008;5.426;2023-05-07T05:11:03;18.30;84.80
49731;DHT22;35622;52.008;5.426;2023-05-07T05:13:29;18.40;84.50
49731;DHT22;35622;52.008;5.426;2023-05-07T05:15:55;18.50;84.20
49731;DHT22;35622;52.008;5.426;2023-05-07T05:18:21;18.50;84.00
49731;DHT22;35622;52.008;5.426;2023-05-07T05:20:46;18.60;83.60
49731;DHT22;35622;52.008;5.426;2023-05-07T05:23:12;18.60;83.50
49731;DHT22;35622;52.008;5.426;2023-05-07T05:25:38;18.50;83.70
49731;DHT22;35622;52.008;5.426;2023-05-07T05:28:04;18.60;83.80
49731;DHT22;35622;52.008;5.426;2023-05-07T05:30:30;18.60;83.40
49731;DHT22;35622;52.008;5.426;2023-05-07T05:32:55;18.70;83.70
49731;DHT22;35622;52.008;5.426;2023-05-07T05:35:21;18.80;83.80
49731;DHT22;35622;52.008;5.426;2023-05-07T05:37:46;18.90;83.60
49731;DHT22;35622;52.008;5.426;2023-05-07T05:40:13;19.10;83.40
49731;DHT22;35622;52.008;5.426;2023-05-07T05:42:39;19.40;82.20
49731;DHT22;35622;52.008;5.426;2023-05-07T05:45:05;19.40;82.10
49731;DHT22;35622;52.008;5.426;2023-05-07T05:47:31;19.50;82.40
49731;DHT22;35622;52.008;5.426;2023-05-07T05:49:56;19.50;82.50
49731;DHT22;35622;52.008;5.426;2023-05-07T05:52:22;19.70;81.60
49731;DHT22;35622;52.008;5.426;2023-05-07T05:54:49;19.80;80.70
49731;DHT22;35622;52.008;5.426;2023-05-07T05:57:14;19.90;79.70
49731;DHT22;35622;52.008;5.426;2023-05-07T05:59:40;19.80;79.70
49731;DHT22;35622;52.008;5.426;2023-05-07T06:02:06;19.70;80.20
49731;DHT22;35622;52.008;5.426;2023-05-07T06:04:32;19.80;80.70
49731;DHT22;35622;52.008;5.426;2023-05-07T06:06:57;19.80;81.40
49731;DHT22;35622;52.008;5.426;2023-05-07T06:09:23;19.80;80.80
49731;DHT22;35622;52.008;5.426;2023-05-07T06:11:48;19.80;81.00
49731;DHT22;35622;52.008;5.426;2023-05-07T06:14:15;19.90;80.20
49731;DHT22;35622;52.008;5.426;2023-05-07T06:16:40;19.90;79.90
49731;DHT22;35622;52.008;5.426;2023-05-07T06:19:07;19.80;80.10
49731;DHT22;35622;52.008;5.426;2023-05-07T06:21:32;19.80;80.70
49731;DHT22;35622;52.008;5.426;2023-05-07T06:23:58;19.80;80.90
49731;DHT22;35622;52.008;5.426;2023-05-07T06:26:23;19.70;81.00
49731;DHT22;35622;52.008;5.426;2023-05-07T06:28:49;19.60;81.20
49731;DHT22;35622;52.008;5.426;2023-05-07T06:31:17;19.80;81.20
49731;DHT22;35622;52.008;5.426;2023-05-07T06:33:44;19.90;80.60
49731;DHT22;35622;52.008;5.426;2023-05-07T06:36:10;20.00;80.60
49731;DHT22;35622;52.008;5.426;2023-05-07T06:38:35;20.00;80.60
49731;DHT22;35622;52.008;5.426;2023-05-07T06:41:01;20.20;80.40
49731;DHT22;35622;52.008;5.426;2023-05-07T06:43:27;20.40;78.90
49731;DHT22;35622;52.008;5.426;2023-05-07T06:45:52;20.50;77.80
49731;DHT22;35622;52.008;5.426;2023-05-07T06:48:18;20.40;78.00
49731;DHT22;35622;52.008;5.426;2023-05-07T06:50:43;20.50;76.80
49731;DHT22;35622;52.008;5.426;2023-05-07T06:53:09;20.20;77.60
49731;DHT22;35622;52.008;5.426;2023-05-07T06:55:34;20.30;78.80
49731;DHT22;35622;52.008;5.426;2023-05-07T06:58:00;20.20;79.20
49731;DHT22;35622;52.008;5.426;2023-05-07T07:00:29;20.10;79.60
49731;DHT22;35622;52.008;5.426;2023-05-07T07:02:56;20.00;79.30
49731;DHT22;35622;52.008;5.426;2023-05-07T07:05:21;20.00;80.10
49731;DHT22;35622;52.008;5.426;2023-05-07T07:07:47;20.00;79.50
49731;DHT22;35622;52.008;5.426;2023-05-07T07:10:21;20.20;80.10
49731;DHT22;35622;52.008;5.426;2023-05-07T07:12:47;20.50;78.30
49731;DHT22;35622;52.008;5.426;2023-05-07T07:15:16;20.60;77.40
49731;DHT22;35622;52.008;5.426;2023-05-07T07:17:42;20.90;76.70
49731;DHT22;35622;52.008;5.426;2023-05-07T07:20:08;21.00;76.00
49731;DHT22;35622;52.008;5.426;2023-05-07T07:22:33;21.10;76.00
49731;DHT22;35622;52.008;5.426;2023-05-07T07:24:59;21.30;76.00
49731;DHT22;35622;52.008;5.426;2023-05-07T07:27:24;21.40;74.70
49731;DHT22;35622;52.008;5.426;2023-05-07T07:29:50;21.40;73.50
49731;DHT22;35622;52.008;5.426;2023-05-07T07:32:16;21.70;74.00
49731;DHT22;35622;52.008;5.426;2023-05-07T07:34:41;22.30;71.30
49731;DHT22;35622;52.008;5.426;2023-05-07T07:37:07;22.50;69.80
49731;DHT22;35622;52.008;5.426;2023-05-07T07:39:33;22.60;70.10
49731;DHT22;35622;52.008;5.426;2023-05-07T07:41:58;22.60;69.40
49731;DHT22;35622;52.008;5.426;2023-05-07T07:44:24;22.60;69.60
49731;DHT22;35622;52.008;5.426;2023-05-07T07:46:50;22.70;69.00
49731;DHT22;35622;52.008;5.426;2023-05-07T07:49:16;22.80;68.10
49731;DHT22;35622;52.008;5.426;2023-05-07T07:51:42;23.00;66.70
49731;DHT22;35622;52.008;5.426;2023-05-07T07:54:07;22.80;67.50
49731;DHT22;35622;52.008;5.426;2023-05-07T07:56:33;22.80;67.70
49731;DHT22;35622;52.008;5.426;2023-05-07T07:58:59;22.70;67.30
49731;DHT22;35622;52.008;5.426;2023-05-07T08:01:25;22.50;66.80
49731;DHT22;35622;52.008;5.426;2023-05-07T08:03:51;22.60;66.00
49731;DHT22;35622;52.008;5.426;2023-05-07T08:06:16;22.20;67.50
49731;DHT22;35622;52.008;5.426;2023-05-07T08:08:42;21.90;68.60
49731;DHT22;35622;52.008;5.426;2023-05-07T08:11:08;21.80;69.50
49731;DHT22;35622;52.008;5.426;2023-05-07T08:13:33;21.60;70.60
49731;DHT22;35622;52.008;5.426;2023-05-07T08:15:59;21.50;71.90
49731;DHT22;35622;52.008;5.426;2023-05-07T08:18:25;21.60;72.60
49731;DHT22;35622;52.008;5.426;2023-05-07T08:20:51;21.70;73.30
49731;DHT22;35622;52.008;5.426;2023-05-07T08:23:16;21.70;73.90
49731;DHT22;35622;52.008;5.426;2023-05-07T08:25:42;21.70;73.90
49731;DHT22;35622;52.008;5.426;2023-05-07T08:28:08;21.70;74.10
49731;DHT22;35622;52.008;5.426;2023-05-07T08:30:33;21.50;74.30
49731;DHT22;35622;52.008;5.426;2023-05-07T08:33:00;21.70;75.50
49731;DHT22;35622;52.008;5.426;2023-05-07T08:35:25;22.00;75.00
49731;DHT22;35622;52.008;5.426;2023-05-07T08:37:52;22.30;74.10
49731;DHT22;35622;52.008;5.426;2023-05-07T08:40:18;22.60;74.00
49731;DHT22;35622;52.008;5.426;2023-05-07T08:42:44;22.80;69.80
49731;DHT22;35622;52.008;5.426;2023-05-07T08:45:10;22.60;71.80
49731;DHT22;35622;52.008;5.426;2023-05-07T08:47:52;22.70;71.50
49731;DHT22;35622;52.008;5.426;2023-05-07T08:50:20;22.40;71.10
49731;DHT22;35622;52.008;5.426;2023-05-07T08:52:47;23.10;71.00
49731;DHT22;35622;52.008;5.426;2023-05-07T08:55:13;23.20;69.70
49731;DHT22;35622;52.008;5.426;2023-05-07T08:57:38;23.60;67.50
49731;DHT22;35622;52.008;5.426;2023-05-07T09:00:05;23.90;67.60
49731;DHT22;35622;52.008;5.426;2023-05-07T09:02:32;23.80;66.40
49731;DHT22;35622;52.008;5.426;2023-05-07T09:04:58;24.10;66.60
49731;DHT22;35622;52.008;5.426;2023-05-07T09:07:24;24.20;65.50
49731;DHT22;35622;52.008;5.426;2023-05-07T09:09:50;24.00;64.50
49731;DHT22;35622;52.008;5.426;2023-05-07T09:12:19;23.70;67.20
49731;DHT22;35622;52.008;5.426;2023-05-07T09:14:45;23.50;66.50
49731;DHT22;35622;52.008;5.426;2023-05-07T09:17:11;23.70;66.50
49731;DHT22;35622;52.008;5.426;2023-05-07T09:19:37;24.00;66.20
49731;DHT22;35622;52.008;5.426;2023-05-07T09:22:04;23.80;65.80
49731;DHT22;35622;52.008;5.426;2023-05-07T09:24:30;23.80;66.30
49731;DHT22;35622;52.008;5.426;2023-05-07T09:27:00;24.50;66.50
49731;DHT22;35622;52.008;5.426;2023-05-07T09:29:26;25.70;63.30
49731;DHT22;35622;52.008;5.426;2023-05-07T09:31:54;27.30;62.00
49731;DHT22;35622;52.008;5.426;2023-05-07T09:34:20;28.00;56.70
49731;DHT22;35622;52.008;5.426;2023-05-07T09:36:46;28.80;52.90
49731;DHT22;35622;52.008;5.426;2023-05-07T09:39:12;29.30;52.00
49731;DHT22;35622;52.008;5.426;2023-05-07T09:41:45;29.90;46.70
49731;DHT22;35622;52.008;5.426;2023-05-07T09:44:12;29.90;47.50
49731;DHT22;35622;52.008;5.426;2023-05-07T09:46:39;29.60;49.00
49731;DHT22;35622;52.008;5.426;2023-05-07T09:49:07;29.30;48.90
49731;DHT22;35622;52.008;5.426;2023-05-07T09:51:47;29.30;47.20
49731;DHT22;35622;52.008;5.426;2023-05-07T09:54:13;29.40;49.00
49731;DHT22;35622;52.008;5.426;2023-05-07T09:56:39;29.50;48.70
49731;DHT22;35622;52.008;5.426;2023-05-07T09:59:08;29.30;49.10
49731;DHT22;35622;52.008;5.426;2023-05-07T10:01:36;28.60;48.80
49731;DHT22;35622;52.008;5.426;2023-05-07T10:04:02;28.10;49.70
49731;DHT22;35622;52.008;5.426;2023-05-07T10:06:34;28.10;49.70
49731;DHT22;35622;52.008;5.426;2023-05-07T10:08:59;28.20;49.20
49731;DHT22;35622;52.008;5.426;2023-05-07T10:11:26;28.00;49.50
49731;DHT22;35622;52.008;5.426;2023-05-07T10:13:52;27.40;50.40
49731;DHT22;35622;52.008;5.426;2023-05-07T10:16:18;26.90;51.50
49731;DHT22;35622;52.008;5.426;2023-05-07T10:18:45;26.50;53.40
49731;DHT22;35622;52.008;5.426;2023-05-07T10:21:16;26.50;53.70
49731;DHT22;35622;52.008;5.426;2023-05-07T10:23:45;26.50;53.70
49731;DHT22;35622;52.008;5.426;2023-05-07T10:26:12;26.40;52.40
49731;DHT22;35622;52.008;5.426;2023-05-07T10:28:42;26.80;54.00
49731;DHT22;35622;52.008;5.426;2023-05-07T10:33:59;28.00;50.20
49731;DHT22;35622;52.008;5.426;2023-05-07T10:36:26;28.90;48.60
49731;DHT22;35622;52.008;5.426;2023-05-07T10:38:53;30.40;48.10
49731;DHT22;35622;52.008;5.426;2023-05-07T10:41:19;32.70;44.70
49731;DHT22;35622;52.008;5.426;2023-05-07T10:43:46;34.30;38.30
49731;DHT22;35622;52.008;5.426;2023-05-07T10:46:22;35.60;35.10
49731;DHT22;35622;52.008;5.426;2023-05-07T10:51:30;35.10;33.90
49731;DHT22;35622;52.008;5.426;2023-05-07T10:54:22;34.20;34.50
49731;DHT22;35622;52.008;5.426;2023-05-07T10:56:49;33.40;35.50
49731;DHT22;35622;52.008;5.426;2023-05-07T11:02:02;32.10;38.70
49731;DHT22;35622;52.008;5.426;2023-05-07T11:04:29;31.30;40.50
49731;DHT22;35622;52.008;5.426;2023-05-07T11:15:12;31.10;37.00
49731;DHT22;35622;52.008;5.426;2023-05-07T11:17:58;30.80;39.20
49731;DHT22;35622;52.008;5.426;2023-05-07T11:20:52;31.20;39.00
49731;DHT22;35622;52.008;5.426;2023-05-07T11:26:04;31.70;37.30
49731;DHT22;35622;52.008;5.426;2023-05-07T11:28:31;33.80;35.10
49731;DHT22;35622;52.008;5.426;2023-05-07T11:30:57;34.60;29.30
49731;DHT22;35622;52.008;5.426;2023-05-07T11:33:23;34.50;30.00
49731;DHT22;35622;52.008;5.426;2023-05-07T11:35:52;33.30;31.50
49731;DHT22;35622;52.008;5.426;2023-05-07T11:38:19;32.90;33.30
49731;DHT22;35622;52.008;5.426;2023-05-07T11:40:51;32.70;32.10
49731;DHT22;35622;52.008;5.426;2023-05-07T11:43:17;32.90;34.70
49731;DHT22;35622;52.008;5.426;2023-05-07T11:45:45;33.50;29.50
49731;DHT22;35622;52.008;5.426;2023-05-07T11:48:12;33.60;28.50
49731;DHT22;35622;52.008;5.426;2023-05-07T11:50:59;34.00;30.10
49731;DHT22;35622;52.008;5.426;2023-05-07T11:53:25;33.50;29.50
49731;DHT22;35622;52.008;5.426;2023-05-07T11:55:57;33.20;30.00
49731;DHT22;35622;52.008;5.426;2023-05-07T11:58:24;33.10;30.00
49731;DHT22;35622;52.008;5.426;2023-05-07T12:00:54;33.10;31.50
49731;DHT22;35622;52.008;5.426;2023-05-07T12:03:20;33.10;31.60
49731;DHT22;35622;52.008;5.426;2023-05-07T12:05:47;32.80;32.40
49731;DHT22;35622;52.008;5.426;2023-05-07T12:08:17;32.60;29.80
49731;DHT22;35622;52.008;5.426;2023-05-07T12:10:48;32.40;31.00
49731;DHT22;35622;52.008;5.426;2023-05-07T12:13:15;32.40;33.00
49731;DHT22;35622;52.008;5.426;2023-05-07T12:15:41;32.50;32.60
49731;DHT22;35622;52.008;5.426;2023-05-07T12:18:07;32.50;30.70
49731;DHT22;35622;52.008;5.426;2023-05-07T12:20:34;32.20;32.00
49731;DHT22;35622;52.008;5.426;2023-05-07T12:23:01;32.90;34.40
49731;DHT22;35622;52.008;5.426;2023-05-07T12:25:29;33.60;31.80
49731;DHT22;35622;52.008;5.426;2023-05-07T12:27:55;33.10;32.70
49731;DHT22;35622;52.008;5.426;2023-05-07T12:30:21;33.10;30.80
49731;DHT22;35622;52.008;5.426;2023-05-07T12:32:53;33.20;29.70
49731;DHT22;35622;52.008;5.426;2023-05-07T12:35:47;33.10;32.40
49731;DHT22;35622;52.008;5.426;2023-05-07T12:38:13;32.90;31.10
49731;DHT22;35622;52.008;5.426;2023-05-07T12:40:47;32.80;30.10
49731;DHT22;35622;52.008;5.426;2023-05-07T12:43:20;32.50;32.00
49731;DHT22;35622;52.008;5.426;2023-05-07T12:45:50;32.40;33.20
49731;DHT22;35622;52.008;5.426;2023-05-07T12:48:16;31.60;31.50
49731;DHT22;35622;52.008;5.426;2023-05-07T12:50:42;31.00;34.10
49731;DHT22;35622;52.008;5.426;2023-05-07T12:53:10;31.00;35.10
49731;DHT22;35622;52.008;5.426;2023-05-07T12:55:50;30.60;35.50
49731;DHT22;35622;52.008;5.426;2023-05-07T12:58:17;30.40;34.00
49731;DHT22;35622;52.008;5.426;2023-05-07T13:00:44;29.80;35.20
49731;DHT22;35622;52.008;5.426;2023-05-07T13:03:11;30.10;35.40
49731;DHT22;35622;52.008;5.426;2023-05-07T13:05:36;29.90;36.70
49731;DHT22;35622;52.008;5.426;2023-05-07T13:08:02;29.60;36.60
49731;DHT22;35622;52.008;5.426;2023-05-07T13:10:28;29.50;37.20
49731;DHT22;35622;52.008;5.426;2023-05-07T13:12:54;29.60;40.10
49731;DHT22;35622;52.008;5.426;2023-05-07T13:15:19;29.60;36.20
49731;DHT22;35622;52.008;5.426;2023-05-07T13:17:45;29.20;37.70
49731;DHT22;35622;52.008;5.426;2023-05-07T13:20:11;29.00;38.30
49731;DHT22;35622;52.008;5.426;2023-05-07T13:22:38;28.90;38.70
49731;DHT22;35622;52.008;5.426;2023-05-07T13:25:04;28.80;39.50
49731;DHT22;35622;52.008;5.426;2023-05-07T13:27:30;28.80;40.20
49731;DHT22;35622;52.008;5.426;2023-05-07T13:29:56;28.90;38.20
49731;DHT22;35622;52.008;5.426;2023-05-07T13:32:22;28.80;39.40
49731;DHT22;35622;52.008;5.426;2023-05-07T13:34:47;28.60;40.10
49731;DHT22;35622;52.008;5.426;2023-05-07T13:37:13;28.50;39.70
49731;DHT22;35622;52.008;5.426;2023-05-07T13:39:38;28.30;40.00
49731;DHT22;35622;52.008;5.426;2023-05-07T13:42:04;28.50;39.60
49731;DHT22;35622;52.008;5.426;2023-05-07T13:44:39;28.40;39.70
49731;DHT22;35622;52.008;5.426;2023-05-07T13:47:05;28.00;39.60
49731;DHT22;35622;52.008;5.426;2023-05-07T13:49:31;27.80;40.20
49731;DHT22;35622;52.008;5.426;2023-05-07T13:51:56;27.50;42.80
49731;DHT22;35622;52.008;5.426;2023-05-07T13:54:22;27.40;43.40
49731;DHT22;35622;52.008;5.426;2023-05-07T13:56:48;27.20;44.00
49731;DHT22;35622;52.008;5.426;2023-05-07T13:59:13;27.40;43.40
49731;DHT22;35622;52.008;5.426;2023-05-07T14:01:40;27.80;42.80
49731;DHT22;35622;52.008;5.426;2023-05-07T14:04:06;28.10;42.80
49731;DHT22;35622;52.008;5.426;2023-05-07T14:06:41;28.50;41.90
49731;DHT22;35622;52.008;5.426;2023-05-07T14:09:07;28.80;42.30
49731;DHT22;35622;52.008;5.426;2023-05-07T14:11:33;28.90;40.20
49731;DHT22;35622;52.008;5.426;2023-05-07T14:13:58;29.00;40.60
49731;DHT22;35622;52.008;5.426;2023-05-07T14:16:24;29.10;40.40
49731;DHT22;35622;52.008;5.426;2023-05-07T14:18:49;28.80;40.60
49731;DHT22;35622;52.008;5.426;2023-05-07T14:21:15;28.50;40.30
49731;DHT22;35622;52.008;5.426;2023-05-07T14:23:40;28.70;40.40
49731;DHT22;35622;52.008;5.426;2023-05-07T14:26:06;28.30;40.40
49731;DHT22;35622;52.008;5.426;2023-05-07T14:28:32;27.90;41.50
49731;DHT22;35622;52.008;5.426;2023-05-07T14:30:58;28.10;41.90
49731;DHT22;35622;52.008;5.426;2023-05-07T14:33:23;28.40;41.90
49731;DHT22;35622;52.008;5.426;2023-05-07T14:35:49;28.40;41.80
49731;DHT22;35622;52.008;5.426;2023-05-07T14:38:15;28.10;43.30
49731;DHT22;35622;52.008;5.426;2023-05-07T14:40:41;27.90;43.10
49731;DHT22;35622;52.008;5.426;2023-05-07T14:43:06;27.50;44.20
49731;DHT22;35622;52.008;5.426;2023-05-07T14:45:32;27.60;44.50
49731;DHT22;35622;52.008;5.426;2023-05-07T14:47:58;27.60;44.40
49731;DHT22;35622;52.008;5.426;2023-05-07T14:50:23;27.70;43.90
49731;DHT22;35622;52.008;5.426;2023-05-07T14:52:49;27.80;44.80
49731;DHT22;35622;52.008;5.426;2023-05-07T14:55:14;27.40;44.50
49731;DHT22;35622;52.008;5.426;2023-05-07T14:57:40;27.30;45.60
49731;DHT22;35622;52.008;5.426;2023-05-07T15:00:06;27.50;44.90
49731;DHT22;35622;52.008;5.426;2023-05-07T15:02:32;27.70;44.00
49731;DHT22;35622;52.008;5.426;2023-05-07T15:04:59;27.60;44.50
49731;DHT22;35622;52.008;5.426;2023-05-07T15:07:24;27.10;44.40
49731;DHT22;35622;52.008;5.426;2023-05-07T15:09:50;27.30;45.00
49731;DHT22;35622;52.008;5.426;2023-05-07T15:12:16;27.20;45.00
49731;DHT22;35622;52.008;5.426;2023-05-07T15:14:42;27.10;45.30
49731;DHT22;35622;52.008;5.426;2023-05-07T15:17:07;27.40;45.00
49731;DHT22;35622;52.008;5.426;2023-05-07T15:19:33;27.20;45.40
49731;DHT22;35622;52.008;5.426;2023-05-07T15:22:00;27.40;46.50
49731;DHT22;35622;52.008;5.426;2023-05-07T15:24:28;27.40;44.70
49731;DHT22;35622;52.008;5.426;2023-05-07T15:26:54;27.60;44.40
49731;DHT22;35622;52.008;5.426;2023-05-07T15:29:20;27.10;46.80
49731;DHT22;35622;52.008;5.426;2023-05-07T15:31:46;26.60;45.60
49731;DHT22;35622;52.008;5.426;2023-05-07T15:34:12;26.20;46.70
49731;DHT22;35622;52.008;5.426;2023-05-07T15:36:37;25.90;46.00
49731;DHT22;35622;52.008;5.426;2023-05-07T15:39:03;25.70;48.00
49731;DHT22;35622;52.008;5.426;2023-05-07T15:41:29;25.30;48.80
49731;DHT22;35622;52.008;5.426;2023-05-07T15:43:55;25.00;51.50
49731;DHT22;35622;52.008;5.426;2023-05-07T15:46:22;24.70;53.00
49731;DHT22;35622;52.008;5.426;2023-05-07T15:48:52;24.40;52.40
49731;DHT22;35622;52.008;5.426;2023-05-07T15:51:18;24.00;52.90
49731;DHT22;35622;52.008;5.426;2023-05-07T15:53:45;24.00;52.80
49731;DHT22;35622;52.008;5.426;2023-05-07T15:56:11;23.50;52.90